createdAt,value
2022-07-29T00:00:27.777Z,16.70
2022-07-29T00:04:09.890Z,16.70
2022-07-29T00:07:51.753Z,16.60
2022-07-29T00:11:33.790Z,16.60
2022-07-29T00:15:19.000Z,16.50
2022-07-29T00:19:02.482Z,16.40
2022-07-29T00:22:45.137Z,16.40
2022-07-29T00:26:28.800Z,16.40
2022-07-29T00:30:10.951Z,16.30
2022-07-29T00:33:53.053Z,16.20
2022-07-29T00:37:34.861Z,16.20
2022-07-29T00:41:17.641Z,16.00
2022-07-29T00:44:59.486Z,15.90
2022-07-29T00:48:41.291Z,15.80
2022-07-29T00:52:23.115Z,15.70
2022-07-29T00:56:05.300Z,15.60
2022-07-29T00:59:47.094Z,15.60
2022-07-29T01:03:28.905Z,15.60
2022-07-29T01:07:11.137Z,15.70
2022-07-29T01:10:54.149Z,15.80
2022-07-29T01:14:38.052Z,15.80
2022-07-29T01:18:22.970Z,15.80
2022-07-29T01:22:33.830Z,15.90
2022-07-29T01:26:34.406Z,15.90
2022-07-29T01:30:16.689Z,15.90
2022-07-29T01:34:06.366Z,15.90
2022-07-29T01:38:01.980Z,15.90
2022-07-29T01:42:22.072Z,15.80
2022-07-29T01:46:10.270Z,15.70
2022-07-29T01:49:57.760Z,15.70
2022-07-29T01:54:03.501Z,15.70
2022-07-29T01:57:48.504Z,15.60
2022-07-29T02:01:33.626Z,15.60
2022-07-29T02:05:19.987Z,15.50
2022-07-29T02:09:03.732Z,15.40
2022-07-29T02:12:50.619Z,15.40
2022-07-29T02:16:34.891Z,15.40
2022-07-29T02:20:17.802Z,15.30
2022-07-29T02:24:02.517Z,15.30
2022-07-29T02:27:45.485Z,15.30
2022-07-29T02:31:34.820Z,15.20
2022-07-29T02:35:18.013Z,15.20
2022-07-29T02:39:01.816Z,15.10
2022-07-29T02:42:47.399Z,15.00
2022-07-29T02:46:33.932Z,15.00
2022-07-29T02:50:21.092Z,14.90
2022-07-29T02:54:08.852Z,14.90
2022-07-29T02:58:09.680Z,14.80
2022-07-29T03:01:53.311Z,14.80
2022-07-29T03:05:36.223Z,14.70
2022-07-29T03:09:20.410Z,14.70
2022-07-29T03:13:03.128Z,14.70
2022-07-29T03:16:45.472Z,14.60
2022-07-29T03:20:27.698Z,14.60
2022-07-29T03:24:10.817Z,14.60
2022-07-29T03:27:52.897Z,14.50
2022-07-29T03:31:34.807Z,14.50
2022-07-29T03:35:17.718Z,14.50
2022-07-29T03:39:00.374Z,14.40
2022-07-29T03:42:44.794Z,14.40
2022-07-29T03:46:29.804Z,14.40
2022-07-29T03:50:14.181Z,14.40
2022-07-29T03:53:56.233Z,14.30
2022-07-29T03:57:41.365Z,14.30
2022-07-29T04:01:24.851Z,14.40
2022-07-29T04:05:12.505Z,14.40
2022-07-29T04:08:54.294Z,14.50
2022-07-29T04:12:36.319Z,14.50
2022-07-29T04:16:18.298Z,14.50
2022-07-29T04:20:00.339Z,14.50
2022-07-29T04:23:53.164Z,14.50
2022-07-29T04:27:35.927Z,14.40
2022-07-29T04:31:21.193Z,14.40
2022-07-29T04:35:05.993Z,14.30
2022-07-29T04:38:47.861Z,14.20
2022-07-29T04:42:29.806Z,14.10
2022-07-29T04:46:11.701Z,14.10
2022-07-29T04:49:53.615Z,14.10
2022-07-29T04:53:36.047Z,14.00
2022-07-29T04:57:17.898Z,13.90
2022-07-29T05:00:59.802Z,13.90
2022-07-29T05:04:41.675Z,13.80
2022-07-29T05:08:23.477Z,13.80
2022-07-29T05:12:05.552Z,13.80
2022-07-29T05:15:47.450Z,13.80
2022-07-29T05:19:29.310Z,13.80
2022-07-29T05:23:13.758Z,13.80
2022-07-29T05:26:55.625Z,13.80
2022-07-29T05:30:37.542Z,13.90
2022-07-29T05:34:19.946Z,13.90
2022-07-29T05:38:01.887Z,14.00
2022-07-29T05:41:45.687Z,14.00
2022-07-29T05:45:29.524Z,14.10
2022-07-29T05:49:11.401Z,14.10
2022-07-29T05:53:19.921Z,14.10
2022-07-29T05:57:02.628Z,14.20
2022-07-29T06:00:45.012Z,14.20
2022-07-29T06:04:26.899Z,14.20
2022-07-29T06:08:08.817Z,14.30
2022-07-29T06:11:50.800Z,14.50
2022-07-29T06:15:32.994Z,14.50
2022-07-29T06:19:14.897Z,14.60
2022-07-29T06:22:57.196Z,14.70
2022-07-29T06:26:40.178Z,14.80
2022-07-29T06:30:21.981Z,14.90
2022-07-29T06:34:04.411Z,15.00
2022-07-29T06:37:47.857Z,15.10
2022-07-29T06:41:30.814Z,15.20
2022-07-29T06:45:13.126Z,15.20
2022-07-29T06:48:55.271Z,15.30
2022-07-29T06:52:37.937Z,15.40
2022-07-29T06:56:19.760Z,15.40
2022-07-29T07:00:02.143Z,15.60
2022-07-29T07:03:44.048Z,15.70
2022-07-29T07:07:26.435Z,15.70
2022-07-29T07:11:08.278Z,15.80
2022-07-29T07:14:50.149Z,15.90
2022-07-29T07:18:32.068Z,16.00
2022-07-29T07:22:13.897Z,16.10
2022-07-29T07:25:55.819Z,16.20
2022-07-29T07:29:37.668Z,16.40
2022-07-29T07:33:19.933Z,16.50
2022-07-29T07:37:01.920Z,16.70
2022-07-29T07:40:43.718Z,16.80
2022-07-29T07:44:25.626Z,16.90
2022-07-29T07:48:07.396Z,17.00
2022-07-29T07:51:50.653Z,17.20
2022-07-29T07:55:53.486Z,17.30
2022-07-29T07:59:34.807Z,17.50
2022-07-29T08:03:17.347Z,17.60
2022-07-29T08:06:59.608Z,17.70
2022-07-29T08:10:53.502Z,17.80
2022-07-29T08:14:35.423Z,17.90
2022-07-29T08:18:17.269Z,18.10
2022-07-29T08:21:59.108Z,18.20
2022-07-29T08:25:41.008Z,18.40
2022-07-29T08:29:22.923Z,18.80
2022-07-29T08:33:05.220Z,19.60
2022-07-29T08:36:50.275Z,20.50
2022-07-29T08:40:33.609Z,21.50
2022-07-29T08:44:22.242Z,22.60
2022-07-29T08:48:13.990Z,23.60
2022-07-29T08:51:58.475Z,24.70
2022-07-29T08:55:48.730Z,25.60
2022-07-29T08:59:35.187Z,26.40
2022-07-29T09:03:20.861Z,27.40
2022-07-29T09:07:06.923Z,28.10
2022-07-29T09:10:49.081Z,28.90
2022-07-29T09:14:30.947Z,29.50
2022-07-29T09:18:19.325Z,30.00
2022-07-29T09:22:13.144Z,30.40
2022-07-29T09:25:55.052Z,30.80
2022-07-29T09:29:38.058Z,31.00
2022-07-29T09:33:20.613Z,31.20
2022-07-29T09:37:03.121Z,31.60
2022-07-29T09:40:57.942Z,32.00
2022-07-29T09:44:49.180Z,32.40
2022-07-29T09:48:30.983Z,32.90
2022-07-29T09:52:12.855Z,33.40
2022-07-29T09:55:54.811Z,33.80
2022-07-29T09:59:36.755Z,34.00
2022-07-29T10:03:32.358Z,34.30
2022-07-29T10:07:14.403Z,34.90
2022-07-29T10:11:13.046Z,35.30
2022-07-29T10:14:55.291Z,35.60
2022-07-29T10:18:40.184Z,36.10
2022-07-29T10:22:43.547Z,36.70
2022-07-29T10:26:24.962Z,37.20
2022-07-29T10:30:07.908Z,37.70
2022-07-29T10:33:56.596Z,38.00
2022-07-29T10:37:56.917Z,38.40
2022-07-29T10:42:34.152Z,38.70
2022-07-29T10:46:17.072Z,39.20
2022-07-29T10:50:03.756Z,39.50
2022-07-29T10:53:54.036Z,39.80
2022-07-29T10:57:54.485Z,40.00
2022-07-29T11:05:59.720Z,40.70
2022-07-29T11:09:41.842Z,41.00
2022-07-29T11:13:44.675Z,41.10
2022-07-29T11:17:47.137Z,41.20
2022-07-29T11:21:53.696Z,41.60
2022-07-29T11:25:42.422Z,42.00
2022-07-29T11:29:25.309Z,42.50
2022-07-29T11:37:42.533Z,43.60
2022-07-29T11:41:30.190Z,43.80
2022-07-29T11:49:32.253Z,43.50
2022-07-29T11:53:15.308Z,43.40
2022-07-29T11:56:59.454Z,43.50
2022-07-29T12:00:43.539Z,43.60
2022-07-29T12:04:25.984Z,44.00
2022-07-29T12:08:29.689Z,44.50
2022-07-29T12:12:11.538Z,44.70
2022-07-29T12:15:55.439Z,44.80
2022-07-29T12:19:46.926Z,44.90
2022-07-29T12:23:29.396Z,44.60
2022-07-29T12:27:18.443Z,44.40
2022-07-29T12:31:00.333Z,44.50
2022-07-29T12:34:43.961Z,44.60
2022-07-29T12:38:26.409Z,44.50
2022-07-29T12:42:18.449Z,44.30
2022-07-29T12:46:13.887Z,44.30
2022-07-29T12:50:26.129Z,44.50
2022-07-29T12:54:14.406Z,44.60
2022-07-29T12:57:56.233Z,44.70
2022-07-29T13:01:38.485Z,44.80
2022-07-29T13:05:20.482Z,45.10
2022-07-29T13:09:25.350Z,45.60
2022-07-29T13:13:13.193Z,45.90
2022-07-29T13:17:04.371Z,46.00
2022-07-29T13:20:46.306Z,46.30
2022-07-29T13:24:28.118Z,46.20
2022-07-29T13:28:12.645Z,45.90
2022-07-29T13:31:55.370Z,46.10
2022-07-29T13:35:39.977Z,46.00
2022-07-29T13:39:22.318Z,45.30
2022-07-29T13:43:04.086Z,44.80
2022-07-29T13:46:46.157Z,45.00
2022-07-29T13:50:27.958Z,45.70
2022-07-29T13:54:09.889Z,46.20
2022-07-29T13:57:51.882Z,46.60
2022-07-29T14:01:33.930Z,47.10
2022-07-29T14:05:15.765Z,47.00
2022-07-29T14:08:57.707Z,46.90
2022-07-29T14:12:39.571Z,46.70
2022-07-29T14:16:21.444Z,46.40
2022-07-29T14:20:03.728Z,46.30
2022-07-29T14:23:45.620Z,46.30
2022-07-29T14:27:38.025Z,46.60
2022-07-29T14:31:20.536Z,46.40
2022-07-29T14:35:02.433Z,45.80
2022-07-29T14:38:44.534Z,46.10
2022-07-29T14:42:26.595Z,46.20
2022-07-29T14:46:09.002Z,45.40
2022-07-29T14:49:51.049Z,44.30
2022-07-29T14:53:33.743Z,43.10
2022-07-29T14:57:15.540Z,42.10
2022-07-29T15:00:57.591Z,41.10
2022-07-29T15:04:39.403Z,40.20
2022-07-29T15:08:21.816Z,39.20
2022-07-29T15:12:04.028Z,38.20
2022-07-29T15:15:46.466Z,37.20
2022-07-29T15:19:28.321Z,36.30
2022-07-29T15:23:10.553Z,35.60
2022-07-29T15:26:52.368Z,35.20
2022-07-29T15:30:36.841Z,35.10
2022-07-29T15:34:18.773Z,34.90
2022-07-29T15:38:00.714Z,34.90
2022-07-29T15:41:42.492Z,35.00
2022-07-29T15:45:24.467Z,35.20
2022-07-29T15:49:07.641Z,35.30
2022-07-29T15:52:49.524Z,35.20
2022-07-29T15:56:32.144Z,35.10
2022-07-29T16:00:14.341Z,34.90
2022-07-29T16:03:56.137Z,34.70
2022-07-29T16:07:38.838Z,34.50
2022-07-29T16:11:21.020Z,34.30
2022-07-29T16:15:07.569Z,34.00
2022-07-29T16:18:51.591Z,33.60
2022-07-29T16:22:33.457Z,33.20
2022-07-29T16:26:15.410Z,32.70
2022-07-29T16:29:57.205Z,32.40
2022-07-29T16:33:54.767Z,32.00
2022-07-29T16:37:38.239Z,31.60
2022-07-29T16:41:20.193Z,31.20
2022-07-29T16:45:02.829Z,31.00
2022-07-29T16:48:44.735Z,30.80
2022-07-29T16:52:27.256Z,30.70
2022-07-29T16:56:12.770Z,30.70
2022-07-29T16:59:54.963Z,30.80
2022-07-29T17:03:59.944Z,31.00
2022-07-29T17:07:46.611Z,30.90
2022-07-29T17:11:53.170Z,30.80
2022-07-29T17:15:30.634Z,30.70
2022-07-29T17:19:18.470Z,30.50
2022-07-29T17:23:03.643Z,30.20
2022-07-29T17:26:47.048Z,29.90
2022-07-29T17:30:29.740Z,29.60
2022-07-29T17:34:11.588Z,29.30
2022-07-29T17:37:54.569Z,29.00
2022-07-29T17:41:36.367Z,28.80
2022-07-29T17:45:18.556Z,28.60
2022-07-29T17:49:00.628Z,28.50
2022-07-29T17:52:42.507Z,28.30
2022-07-29T17:56:25.028Z,28.20
2022-07-29T18:00:08.225Z,28.10
2022-07-29T18:03:50.604Z,28.10
2022-07-29T18:07:32.498Z,28.00
2022-07-29T18:11:15.160Z,28.00
2022-07-29T18:14:57.090Z,27.80
2022-07-29T18:18:39.717Z,27.60
2022-07-29T18:22:22.157Z,27.40
2022-07-29T18:26:04.273Z,27.10
2022-07-29T18:29:46.120Z,26.90
2022-07-29T18:33:33.344Z,26.60
2022-07-29T18:37:15.459Z,26.30
2022-07-29T18:40:57.691Z,26.00
2022-07-29T18:44:43.832Z,25.70
2022-07-29T18:48:33.384Z,25.50
2022-07-29T18:52:15.274Z,25.30
2022-07-29T18:56:00.242Z,25.20
2022-07-29T18:59:43.383Z,25.10
2022-07-29T19:03:25.377Z,25.10
2022-07-29T19:07:07.207Z,25.20
2022-07-29T19:10:49.014Z,25.20
2022-07-29T19:14:30.851Z,25.10
2022-07-29T19:18:15.739Z,25.00
2022-07-29T19:21:57.608Z,24.90
2022-07-29T19:25:53.161Z,24.70
2022-07-29T19:29:36.179Z,24.40
2022-07-29T19:33:19.208Z,24.20
2022-07-29T19:37:01.517Z,23.90
2022-07-29T19:40:44.889Z,23.60
2022-07-29T19:44:26.719Z,23.40
2022-07-29T19:48:08.563Z,23.20
2022-07-29T19:51:50.418Z,23.00
2022-07-29T19:55:35.770Z,22.90
2022-07-29T19:59:17.703Z,22.80
2022-07-29T20:03:05.797Z,22.60
2022-07-29T20:06:49.492Z,22.40
2022-07-29T20:10:34.806Z,22.20
2022-07-29T20:14:16.916Z,22.00
2022-07-29T20:17:58.700Z,21.70
2022-07-29T20:21:40.535Z,21.50
2022-07-29T20:25:23.210Z,21.40
2022-07-29T20:29:05.411Z,21.20
2022-07-29T20:32:47.634Z,21.00
2022-07-29T20:36:29.511Z,20.90
2022-07-29T20:40:12.542Z,20.60
2022-07-29T20:43:55.340Z,20.50
2022-07-29T20:47:37.134Z,20.40
2022-07-29T20:51:19.409Z,20.20
2022-07-29T20:55:01.381Z,20.10
2022-07-29T20:58:43.260Z,20.00
2022-07-29T21:02:25.193Z,19.80
2022-07-29T21:06:09.025Z,19.70
2022-07-29T21:09:51.087Z,19.60
2022-07-29T21:13:38.282Z,19.50
2022-07-29T21:17:22.482Z,19.40
2022-07-29T21:21:05.394Z,19.40
2022-07-29T21:24:47.401Z,19.40
2022-07-29T21:28:41.144Z,19.30
2022-07-29T21:32:27.426Z,19.30
2022-07-29T21:36:44.033Z,19.20
2022-07-29T21:40:13.953Z,19.10
2022-07-29T21:43:55.753Z,19.00
2022-07-29T21:47:41.344Z,18.90
2022-07-29T21:51:23.153Z,18.80
2022-07-29T21:55:05.417Z,18.70
2022-07-29T21:58:47.395Z,18.60
2022-07-29T22:02:29.317Z,18.50
2022-07-29T22:06:11.311Z,18.40
2022-07-29T22:09:59.730Z,18.30
2022-07-29T22:13:41.596Z,18.20
2022-07-29T22:17:24.338Z,18.10
2022-07-29T22:21:06.149Z,18.10
2022-07-29T22:24:47.942Z,18.10
2022-07-29T22:28:29.994Z,18.00
2022-07-29T22:32:11.805Z,17.90
2022-07-29T22:35:53.604Z,17.90
2022-07-29T22:39:35.486Z,17.80
2022-07-29T22:43:17.381Z,17.80
2022-07-29T22:46:59.956Z,17.70
2022-07-29T22:50:42.062Z,17.70
2022-07-29T22:54:23.853Z,17.70
2022-07-29T22:58:05.678Z,17.60
2022-07-29T23:01:47.629Z,17.60
2022-07-29T23:05:29.500Z,17.60
2022-07-29T23:09:11.367Z,17.50
2022-07-29T23:12:53.276Z,17.50
2022-07-29T23:16:35.223Z,17.50
2022-07-29T23:20:17.287Z,17.40
2022-07-29T23:23:59.074Z,17.40
2022-07-29T23:27:41.226Z,17.30
2022-07-29T23:31:23.061Z,17.30
2022-07-29T23:35:06.968Z,17.20
2022-07-29T23:38:48.936Z,17.10
2022-07-29T23:42:30.859Z,17.10
2022-07-29T23:46:23.985Z,17.00
2022-07-29T23:50:08.089Z,17.00
2022-07-29T23:53:53.670Z,16.90
2022-07-29T23:57:36.098Z,16.90
